JEF weather

Jefferson City Memorial Airport
Jefferson City, Missouri, United States

Public forecast

Using degrees Fahrenheit for public forecast. Weather courtesy of forecast.io.

METAR (pilot weather report)

Retrieved 2019/08/22 07:53 UTC (1 hour ago):

KJEF 220753Z AUTO 34004KT 10SM SCT011 23/21 A2997 RMK AO2 SLP136 P0001 T02280206 TSNO

TAF (pilot weather forecast)

Closest forecast is Columbia Regional Airport, 13.9 nm (25.8 km) NNW. Retrieved 2019/08/22 06:22 UTC (3 hours ago):

TAF KCOU 220520Z 2206/2306 02005KT 6SM -TSRA SCT015 BKN035CB TEMPO 2206/2209 3SM TSRA BKN020CB FM221200 01005KT P6SM VCSH OVC020 FM222100 03006KT P6SM OVC035 FM230000 04005KT P6SM BKN050